createdAt,value
2023-03-23T15:58:55.812Z,62.99
2023-03-23T16:02:27.120Z,62.99
2023-03-23T16:05:55.570Z,63.20
2023-03-23T16:09:23.264Z,63.13
2023-03-23T16:12:50.659Z,63.06
2023-03-23T16:16:20.107Z,63.22
2023-03-23T16:19:47.005Z,63.23
2023-03-23T16:23:13.716Z,63.26
2023-03-23T16:26:42.178Z,63.10
2023-03-23T16:30:19.137Z,63.18
2023-03-23T16:33:49.228Z,63.39
2023-03-23T16:37:17.163Z,63.50
2023-03-23T16:40:48.645Z,63.67
2023-03-23T16:44:15.143Z,63.88
2023-03-23T16:47:42.660Z,63.94
2023-03-23T16:51:10.070Z,64.30
2023-03-23T16:54:36.703Z,64.27
2023-03-23T16:58:16.335Z,64.49
2023-03-23T17:01:44.279Z,64.56
2023-03-23T17:05:13.821Z,64.67
2023-03-23T17:08:40.812Z,64.92
2023-03-23T17:12:08.896Z,65.07
2023-03-23T17:15:54.245Z,65.29
2023-03-23T17:19:21.523Z,65.26
2023-03-23T17:22:49.615Z,65.37
2023-03-23T17:26:16.450Z,65.68
2023-03-23T17:29:43.338Z,65.69
2023-03-23T17:33:11.276Z,65.77
2023-03-23T17:36:38.425Z,65.84
2023-03-23T17:40:08.633Z,66.01
2023-03-23T17:43:36.578Z,66.35
2023-03-23T17:47:04.731Z,66.26
2023-03-23T17:50:32.030Z,66.38
2023-03-23T17:53:59.337Z,66.40
2023-03-23T17:57:26.349Z,66.56
2023-03-23T18:00:53.284Z,66.50
2023-03-23T18:04:19.884Z,66.40
2023-03-23T18:07:47.443Z,66.50
2023-03-23T18:11:14.167Z,66.51
2023-03-23T18:14:40.887Z,66.60
2023-03-23T18:18:08.764Z,66.56
2023-03-23T18:21:35.473Z,66.47
2023-03-23T18:25:02.972Z,66.67
2023-03-23T18:28:29.585Z,66.48
2023-03-23T18:31:56.423Z,66.63
2023-03-23T18:35:24.030Z,66.83
2023-03-23T18:38:51.605Z,66.65
2023-03-23T18:42:18.685Z,66.94
2023-03-23T18:45:49.754Z,66.90
2023-03-23T18:49:16.778Z,67.07
2023-03-23T18:52:43.604Z,67.10
2023-03-23T18:56:13.838Z,67.20
2023-03-23T18:59:41.403Z,67.22
2023-03-23T19:03:11.460Z,67.40
2023-03-23T19:06:38.540Z,67.41
2023-03-23T19:10:06.498Z,67.59
2023-03-23T19:13:37.545Z,67.55
2023-03-23T19:17:06.399Z,67.66
2023-03-23T19:21:07.807Z,67.54
2023-03-23T19:24:20.769Z,67.86
2023-03-23T19:28:27.534Z,67.87
2023-03-23T19:31:34.756Z,68.11
2023-03-23T19:35:03.384Z,68.15
2023-03-23T19:38:30.981Z,68.36
2023-03-23T19:41:57.879Z,68.28
2023-03-23T19:45:25.258Z,68.33
2023-03-23T19:48:52.305Z,68.50
2023-03-23T19:52:20.305Z,68.46
2023-03-23T19:55:50.261Z,68.60
2023-03-23T19:59:18.519Z,68.56
2023-03-23T20:02:46.115Z,68.52
2023-03-23T20:06:22.735Z,68.63
2023-03-23T20:09:52.598Z,68.51
2023-03-23T20:13:20.232Z,68.55
2023-03-23T20:16:47.659Z,68.36
2023-03-23T20:20:15.760Z,68.42
2023-03-23T20:23:45.200Z,68.44
2023-03-23T20:27:13.491Z,68.33
2023-03-23T20:30:40.447Z,68.33
2023-03-23T20:34:10.842Z,68.52
2023-03-23T20:37:41.296Z,68.60
2023-03-23T20:41:12.281Z,68.82
2023-03-23T20:44:39.904Z,69.00
2023-03-23T20:48:09.830Z,69.18
2023-03-23T20:51:37.519Z,69.34
2023-03-23T20:55:06.164Z,69.36
2023-03-23T20:58:34.651Z,69.24
2023-03-23T21:02:03.036Z,69.66
2023-03-23T21:05:30.275Z,69.58
2023-03-23T21:08:58.898Z,69.48
2023-03-23T21:12:26.206Z,69.44
2023-03-23T21:15:55.276Z,69.62
2023-03-23T21:19:27.768Z,69.36
2023-03-23T21:22:55.147Z,69.32
2023-03-23T21:26:25.694Z,69.16
2023-03-23T21:30:18.578Z,69.29
2023-03-23T21:33:45.670Z,69.36
2023-03-23T21:37:15.370Z,69.43
2023-03-23T21:40:46.721Z,69.45
2023-03-23T21:44:15.604Z,69.71
2023-03-23T21:47:43.420Z,69.75
2023-03-23T21:51:16.521Z,69.73
2023-03-23T21:54:43.879Z,69.54
2023-03-23T21:58:11.326Z,69.68
2023-03-23T22:01:40.613Z,69.56
2023-03-23T22:05:08.404Z,69.86
2023-03-23T22:08:35.631Z,69.92
2023-03-23T22:12:02.712Z,69.99
2023-03-23T22:15:29.775Z,70.05
2023-03-23T22:18:59.668Z,70.04
2023-03-23T22:22:28.022Z,70.04
2023-03-23T22:25:55.980Z,69.91
2023-03-23T22:29:23.212Z,70.12
2023-03-23T22:32:50.277Z,70.26
2023-03-23T22:36:17.896Z,70.29
2023-03-23T22:39:47.040Z,70.46
2023-03-23T22:43:13.980Z,70.43
2023-03-23T22:46:41.167Z,70.57
2023-03-23T22:50:09.542Z,70.44
2023-03-23T22:53:36.734Z,70.51
2023-03-23T22:57:09.064Z,70.59
2023-03-23T23:00:43.887Z,70.68
2023-03-23T23:04:16.138Z,70.61
2023-03-23T23:07:45.127Z,70.46
2023-03-23T23:11:21.804Z,70.51
2023-03-23T23:14:49.083Z,70.31
2023-03-23T23:18:17.880Z,70.26
2023-03-23T23:21:44.841Z,70.36
2023-03-23T23:25:11.736Z,70.37
2023-03-23T23:28:39.345Z,70.53
2023-03-23T23:32:07.058Z,70.42
2023-03-23T23:35:35.321Z,70.48
2023-03-23T23:39:07.968Z,70.68
2023-03-23T23:42:36.379Z,70.95
2023-03-23T23:46:09.447Z,71.05
2023-03-23T23:49:36.238Z,71.20
2023-03-23T23:53:05.299Z,71.24
2023-03-23T23:56:32.901Z,71.31
